createdAt,value
2024-03-24T00:00:15.516Z,56.00
2024-03-24T00:00:46.946Z,57.33
2024-03-24T00:01:18.369Z,59.00
2024-03-24T00:01:49.787Z,59.00
2024-03-24T00:02:21.191Z,60.00
2024-03-24T00:02:52.603Z,67.00
2024-03-24T00:03:24.008Z,80.33
2024-03-24T00:03:55.423Z,80.67
2024-03-24T00:04:26.853Z,77.00
2024-03-24T00:04:58.265Z,74.33
2024-03-24T00:05:29.683Z,72.67
2024-03-24T00:06:01.106Z,72.00
2024-03-24T00:06:32.512Z,71.33
2024-03-24T00:07:04.422Z,71.00
2024-03-24T00:07:35.820Z,71.00
2024-03-24T00:08:07.250Z,71.00
2024-03-24T00:08:38.662Z,71.00
2024-03-24T00:09:13.509Z,71.33
2024-03-24T00:09:45.959Z,72.00
2024-03-24T00:10:17.395Z,72.33
2024-03-24T00:10:49.080Z,73.00
2024-03-24T00:11:20.484Z,73.33
2024-03-24T00:11:52.028Z,75.00
2024-03-24T00:12:23.460Z,76.67
2024-03-24T00:12:54.864Z,77.67
2024-03-24T00:13:26.277Z,80.00
2024-03-24T00:13:57.683Z,83.33
2024-03-24T00:14:29.276Z,85.00
2024-03-24T00:15:00.797Z,84.00
2024-03-24T00:15:32.680Z,83.00
2024-03-24T00:16:04.387Z,83.00
2024-03-24T00:16:35.896Z,83.33
2024-03-24T00:17:07.369Z,86.00
2024-03-24T00:17:38.822Z,88.67
2024-03-24T00:18:10.212Z,88.33
2024-03-24T00:18:41.626Z,88.00
2024-03-24T00:19:13.742Z,88.00
2024-03-24T00:19:45.149Z,89.00
2024-03-24T00:20:16.707Z,92.33
2024-03-24T00:20:48.157Z,98.00
2024-03-24T00:21:19.570Z,101.00
2024-03-24T00:21:51.007Z,101.00
2024-03-24T00:22:22.795Z,99.33
2024-03-24T00:22:54.222Z,98.00
2024-03-24T00:23:25.658Z,98.67
2024-03-24T00:23:57.981Z,102.00
2024-03-24T00:24:29.474Z,104.33
2024-03-24T00:25:00.889Z,106.67
2024-03-24T00:25:32.306Z,108.00
2024-03-24T00:26:03.785Z,107.33
2024-03-24T00:26:35.199Z,105.67
2024-03-24T00:27:06.603Z,103.67
2024-03-24T00:27:38.029Z,103.00
2024-03-24T00:28:09.516Z,103.00
2024-03-24T00:28:40.927Z,104.67
2024-03-24T00:29:12.345Z,110.67
2024-03-24T00:29:43.776Z,113.00
2024-03-24T00:30:15.216Z,114.67
2024-03-24T00:30:46.645Z,127.33
2024-03-24T00:31:18.068Z,135.67
2024-03-24T00:31:49.475Z,134.00
2024-03-24T00:32:20.896Z,132.67
2024-03-24T00:32:52.745Z,127.00
2024-03-24T00:33:24.221Z,123.00
2024-03-24T00:33:55.628Z,121.00
2024-03-24T00:34:27.042Z,120.33
2024-03-24T00:34:58.462Z,119.67
2024-03-24T00:35:30.579Z,119.00
2024-03-24T00:36:02.055Z,119.33
2024-03-24T00:36:33.473Z,120.67
2024-03-24T00:37:04.935Z,121.00
2024-03-24T00:37:36.553Z,120.33
2024-03-24T00:38:07.962Z,119.33
2024-03-24T00:38:40.680Z,119.33
2024-03-24T00:39:12.083Z,122.33
2024-03-24T00:39:45.491Z,126.00
2024-03-24T00:40:17.431Z,131.00
2024-03-24T00:40:48.837Z,133.67
2024-03-24T00:41:20.254Z,130.33
2024-03-24T00:41:51.672Z,128.67
2024-03-24T00:42:23.310Z,127.67
2024-03-24T00:42:55.949Z,127.00
2024-03-24T00:43:28.195Z,127.00
2024-03-24T00:43:59.743Z,126.33
2024-03-24T00:44:31.175Z,125.67
2024-03-24T00:45:02.659Z,124.33
2024-03-24T00:45:34.079Z,121.33
2024-03-24T00:46:05.556Z,118.00
2024-03-24T00:46:36.970Z,114.33
2024-03-24T00:47:08.383Z,111.33
2024-03-24T00:47:40.601Z,110.33
2024-03-24T00:48:12.035Z,106.33
2024-03-24T00:48:43.442Z,100.67
2024-03-24T00:49:14.926Z,98.33
2024-03-24T00:49:46.402Z,97.00
2024-03-24T00:50:17.923Z,96.00
2024-03-24T00:50:49.328Z,94.67
2024-03-24T00:51:20.762Z,94.00
2024-03-24T00:51:52.167Z,94.67
2024-03-24T00:52:23.581Z,96.33
2024-03-24T00:52:54.992Z,97.33
2024-03-24T00:53:26.400Z,98.00
2024-03-24T00:53:58.494Z,98.67
2024-03-24T00:54:29.925Z,99.00
2024-03-24T00:55:01.346Z,99.33
2024-03-24T00:55:32.760Z,100.00
2024-03-24T00:56:04.460Z,100.00
2024-03-24T00:56:35.876Z,99.33
2024-03-24T00:57:07.284Z,98.33
2024-03-24T00:57:38.697Z,98.67
2024-03-24T00:58:10.165Z,98.67
2024-03-24T00:58:41.579Z,98.00
2024-03-24T00:59:13.024Z,96.67
2024-03-24T00:59:44.454Z,94.00
2024-03-24T01:00:16.016Z,91.00
2024-03-24T01:00:47.811Z,90.00
2024-03-24T01:01:20.195Z,89.67
2024-03-24T01:01:51.596Z,88.33
2024-03-24T01:02:23.012Z,85.67
2024-03-24T01:02:54.663Z,81.67
2024-03-24T01:03:26.075Z,79.00
2024-03-24T01:03:57.478Z,82.00
2024-03-24T01:04:28.892Z,83.00
2024-03-24T01:05:01.140Z,81.67
2024-03-24T01:05:32.545Z,79.33
2024-03-24T01:06:04.546Z,76.33
2024-03-24T01:06:35.964Z,75.00
2024-03-24T01:07:07.404Z,76.00
2024-03-24T01:07:38.811Z,76.00
2024-03-24T01:08:10.231Z,75.33
2024-03-24T01:08:41.637Z,74.33
2024-03-24T01:09:13.873Z,73.33
2024-03-24T01:09:45.304Z,73.00
2024-03-24T01:10:17.086Z,74.67
2024-03-24T01:10:48.461Z,75.00
2024-03-24T01:11:19.877Z,75.00
2024-03-24T01:11:51.319Z,73.67
2024-03-24T01:12:24.809Z,72.33
2024-03-24T01:12:56.221Z,72.00
2024-03-24T01:13:27.640Z,72.33
2024-03-24T01:13:59.044Z,73.00
2024-03-24T01:14:31.259Z,73.00
2024-03-24T01:15:03.215Z,72.67
2024-03-24T01:15:34.723Z,71.33
2024-03-24T01:16:06.398Z,71.33
2024-03-24T01:16:37.827Z,72.00
2024-03-24T01:17:09.565Z,72.67
2024-03-24T01:17:42.414Z,73.00
2024-03-24T01:18:14.000Z,73.00
2024-03-24T01:18:45.423Z,73.00
2024-03-24T01:19:16.918Z,72.00
2024-03-24T01:19:48.514Z,71.00
2024-03-24T01:20:19.925Z,70.33
2024-03-24T01:20:51.869Z,70.00
2024-03-24T01:21:23.582Z,70.00
2024-03-24T01:21:55.001Z,70.00
2024-03-24T01:22:26.413Z,70.00
2024-03-24T01:22:57.850Z,69.33
2024-03-24T01:23:29.268Z,68.33
2024-03-24T01:24:00.678Z,67.00
2024-03-24T01:24:32.522Z,66.00
2024-03-24T01:25:04.955Z,65.00
2024-03-24T01:25:36.358Z,64.67
2024-03-24T01:26:07.796Z,64.00
2024-03-24T01:26:39.176Z,63.33
2024-03-24T01:27:10.606Z,63.00
2024-03-24T01:27:42.012Z,63.00
2024-03-24T01:28:13.423Z,63.00
2024-03-24T01:28:44.839Z,63.00
2024-03-24T01:29:16.287Z,63.00
2024-03-24T01:29:48.171Z,63.00
2024-03-24T01:30:19.585Z,63.00
2024-03-24T01:30:50.998Z,63.00
2024-03-24T01:31:22.431Z,63.67
2024-03-24T01:31:53.844Z,64.00
2024-03-24T01:32:25.316Z,64.00
2024-03-24T01:32:56.746Z,64.00
2024-03-24T01:33:28.160Z,64.00
2024-03-24T01:33:59.754Z,64.00
2024-03-24T01:34:31.130Z,64.00
2024-03-24T01:35:02.722Z,64.00
2024-03-24T01:35:34.137Z,64.00
2024-03-24T01:36:06.702Z,64.00
2024-03-24T01:36:38.133Z,64.00
2024-03-24T01:37:09.564Z,64.67
2024-03-24T01:37:41.022Z,65.00
2024-03-24T01:38:12.981Z,65.00
2024-03-24T01:38:44.389Z,66.00
2024-03-24T01:39:15.807Z,66.00
2024-03-24T01:39:48.458Z,66.00
2024-03-24T01:40:19.863Z,66.00
2024-03-24T01:40:51.761Z,66.00
2024-03-24T01:41:23.297Z,66.00
2024-03-24T01:41:54.727Z,66.33
2024-03-24T01:42:26.125Z,67.00
2024-03-24T01:42:57.695Z,67.00
2024-03-24T01:43:29.108Z,67.00
2024-03-24T01:44:00.538Z,67.00
2024-03-24T01:44:32.097Z,66.67
2024-03-24T01:45:03.870Z,66.00
2024-03-24T01:45:35.269Z,66.00
2024-03-24T01:46:06.943Z,66.00
2024-03-24T01:46:38.363Z,66.33
2024-03-24T01:47:09.856Z,67.00
2024-03-24T01:47:41.237Z,67.00
2024-03-24T01:48:13.088Z,67.00
2024-03-24T01:48:44.494Z,68.33
2024-03-24T01:49:16.386Z,85.67
2024-03-24T01:49:47.790Z,107.00
2024-03-24T01:50:19.212Z,112.33
2024-03-24T01:50:51.415Z,111.67
2024-03-24T01:51:23.315Z,118.33
2024-03-24T01:51:54.854Z,115.67
2024-03-24T01:52:26.729Z,105.67
2024-03-24T01:52:58.380Z,98.33
2024-03-24T01:53:30.519Z,96.33
2024-03-24T01:54:02.763Z,95.00
2024-03-24T01:54:37.127Z,94.33
2024-03-24T01:55:09.312Z,93.33
2024-03-24T01:55:40.728Z,92.67
2024-03-24T01:56:12.279Z,92.00
2024-03-24T01:56:44.558Z,92.00
2024-03-24T01:57:15.963Z,91.33
2024-03-24T01:57:47.857Z,91.00
2024-03-24T01:58:19.254Z,89.67
2024-03-24T01:58:50.672Z,88.33
2024-03-24T01:59:22.082Z,86.00
2024-03-24T01:59:53.560Z,82.00
2024-03-24T02:00:25.018Z,75.00
2024-03-24T02:00:56.431Z,71.33
2024-03-24T02:01:27.848Z,71.00
2024-03-24T02:01:59.264Z,71.67
2024-03-24T02:02:30.690Z,72.67
2024-03-24T02:03:02.128Z,73.00
2024-03-24T02:03:35.660Z,73.67
2024-03-24T02:04:08.470Z,74.00
2024-03-24T02:04:48.930Z,74.67
2024-03-24T02:05:27.326Z,75.00
2024-03-24T02:05:59.197Z,75.00
2024-03-24T02:06:31.767Z,74.33
2024-03-24T02:07:04.386Z,74.00
2024-03-24T02:07:35.800Z,73.00
2024-03-24T02:08:07.239Z,73.00
2024-03-24T02:08:38.676Z,73.33
2024-03-24T02:09:10.091Z,74.00
2024-03-24T02:09:42.795Z,75.00
2024-03-24T02:10:14.227Z,75.00
2024-03-24T02:10:45.638Z,75.00
2024-03-24T02:11:17.076Z,76.00
2024-03-24T02:11:49.059Z,76.00
2024-03-24T02:12:20.481Z,76.33
2024-03-24T02:12:51.893Z,78.00
2024-03-24T02:13:23.466Z,79.33
2024-03-24T02:14:02.807Z,83.33
2024-03-24T02:14:34.513Z,90.00
2024-03-24T02:15:06.297Z,90.67
2024-03-24T02:15:37.739Z,89.67
2024-03-24T02:16:09.164Z,89.00
2024-03-24T02:16:40.568Z,88.00
2024-03-24T02:17:11.989Z,87.67
2024-03-24T02:17:43.620Z,87.00
2024-03-24T02:18:15.000Z,87.00
2024-03-24T02:18:46.699Z,87.00
2024-03-24T02:19:20.192Z,87.00
2024-03-24T02:19:51.600Z,87.00
2024-03-24T02:20:23.337Z,87.67
2024-03-24T02:20:54.741Z,88.00
2024-03-24T02:21:26.311Z,88.00
2024-03-24T02:21:57.719Z,92.00
2024-03-24T02:22:33.473Z,98.33
2024-03-24T02:23:04.893Z,99.00
2024-03-24T02:23:36.302Z,100.00
2024-03-24T02:24:07.868Z,101.33
2024-03-24T02:24:39.269Z,105.67
2024-03-24T02:25:10.703Z,109.33
2024-03-24T02:25:42.368Z,108.00
2024-03-24T02:26:13.786Z,106.00
2024-03-24T02:26:45.311Z,107.33
2024-03-24T02:27:16.731Z,116.00
2024-03-24T02:27:48.162Z,121.67
2024-03-24T02:28:19.643Z,136.67
2024-03-24T02:28:54.620Z,148.00
2024-03-24T02:29:26.056Z,144.33
2024-03-24T02:29:57.815Z,137.00
2024-03-24T02:30:29.300Z,131.67
2024-03-24T02:31:01.940Z,129.00
2024-03-24T02:31:33.345Z,124.33
2024-03-24T02:32:05.239Z,122.33
2024-03-24T02:32:38.047Z,121.00
2024-03-24T02:33:09.472Z,118.00
2024-03-24T02:33:40.874Z,117.00
2024-03-24T02:34:12.452Z,117.33
2024-03-24T02:34:43.890Z,117.00
2024-03-24T02:35:15.383Z,116.33
2024-03-24T02:35:49.040Z,113.67
2024-03-24T02:36:20.452Z,109.00
2024-03-24T02:36:51.874Z,106.33
2024-03-24T02:37:23.282Z,104.00
2024-03-24T02:37:54.897Z,101.00
2024-03-24T02:38:26.319Z,97.00
2024-03-24T02:38:58.211Z,92.33
2024-03-24T02:39:29.614Z,87.67
2024-03-24T02:40:01.228Z,85.00
2024-03-24T02:40:32.648Z,86.67
2024-03-24T02:41:04.752Z,89.67
2024-03-24T02:41:36.173Z,91.00
2024-03-24T02:42:07.593Z,92.00
2024-03-24T02:42:39.432Z,93.00
2024-03-24T02:43:10.880Z,95.33
2024-03-24T02:43:42.277Z,97.33
2024-03-24T02:44:13.679Z,98.33
2024-03-24T02:44:45.111Z,99.00
2024-03-24T02:45:16.917Z,99.00
2024-03-24T02:45:57.652Z,98.33
2024-03-24T02:46:29.055Z,97.00
2024-03-24T02:47:00.477Z,101.67
2024-03-24T02:47:32.145Z,129.33
2024-03-24T02:48:03.952Z,146.33
2024-03-24T02:48:35.376Z,148.33
2024-03-24T02:49:06.788Z,144.33
2024-03-24T02:49:38.212Z,140.67
2024-03-24T02:50:09.686Z,138.33
2024-03-24T02:50:41.108Z,140.33
2024-03-24T02:51:13.068Z,137.67
2024-03-24T02:51:44.501Z,135.00
2024-03-24T02:52:15.945Z,132.00
2024-03-24T02:52:47.373Z,130.67
2024-03-24T02:53:18.937Z,129.67
2024-03-24T02:53:50.336Z,129.00
2024-03-24T02:54:21.758Z,129.00
2024-03-24T02:54:53.174Z,131.00
2024-03-24T02:55:25.298Z,132.67
2024-03-24T02:55:56.730Z,132.67
2024-03-24T02:56:28.144Z,131.33
2024-03-24T02:56:59.560Z,131.00
2024-03-24T02:57:31.238Z,130.00
2024-03-24T02:58:02.752Z,129.67
2024-03-24T02:58:34.163Z,127.00
2024-03-24T02:59:05.584Z,125.33
2024-03-24T02:59:36.991Z,125.00
2024-03-24T03:00:13.543Z,125.33
2024-03-24T03:00:44.940Z,127.67
2024-03-24T03:01:17.606Z,128.00
2024-03-24T03:01:49.017Z,128.00
2024-03-24T03:02:20.416Z,128.33
2024-03-24T03:02:52.094Z,130.67
2024-03-24T03:03:23.509Z,130.33
2024-03-24T03:03:54.940Z,129.33
2024-03-24T03:04:28.022Z,127.67
2024-03-24T03:04:59.646Z,125.33
2024-03-24T03:05:31.044Z,121.33
2024-03-24T03:06:02.549Z,121.67
2024-03-24T03:06:34.216Z,122.00
2024-03-24T03:07:05.678Z,120.33
2024-03-24T03:07:37.119Z,120.00
2024-03-24T03:08:08.832Z,119.00
2024-03-24T03:08:40.239Z,118.67
2024-03-24T03:09:14.152Z,117.00
2024-03-24T03:09:45.565Z,114.00
2024-03-24T03:10:16.995Z,111.33
2024-03-24T03:10:48.722Z,109.00
2024-03-24T03:11:20.194Z,108.00
2024-03-24T03:11:51.594Z,109.00
2024-03-24T03:12:23.551Z,108.67
2024-03-24T03:12:54.972Z,107.33
2024-03-24T03:13:26.382Z,106.67
2024-03-24T03:13:57.791Z,106.00
2024-03-24T03:14:29.214Z,107.00
2024-03-24T03:15:00.749Z,108.00
2024-03-24T03:15:32.155Z,108.00
2024-03-24T03:16:03.789Z,109.67
2024-03-24T03:16:35.695Z,125.33
2024-03-24T03:17:07.239Z,155.67
2024-03-24T03:17:38.614Z,178.67
2024-03-24T03:18:10.027Z,179.00
2024-03-24T03:18:41.822Z,172.33
2024-03-24T03:19:13.264Z,170.00
2024-03-24T03:19:44.658Z,160.33
2024-03-24T03:20:16.170Z,152.67
2024-03-24T03:20:48.022Z,148.00
2024-03-24T03:21:19.618Z,146.00
2024-03-24T03:21:51.024Z,142.33
2024-03-24T03:22:22.448Z,140.00
2024-03-24T03:22:53.850Z,137.00
2024-03-24T03:23:25.268Z,133.67
2024-03-24T03:23:56.669Z,126.00
2024-03-24T03:24:28.167Z,118.67
2024-03-24T03:24:59.586Z,119.00
2024-03-24T03:25:30.997Z,118.00
2024-03-24T03:26:02.403Z,115.33
2024-03-24T03:26:33.825Z,117.00
2024-03-24T03:27:05.231Z,119.00
2024-03-24T03:27:37.079Z,124.00
2024-03-24T03:28:08.489Z,126.67
2024-03-24T03:28:39.910Z,127.00
2024-03-24T03:29:11.336Z,126.67
2024-03-24T03:29:42.748Z,124.67
2024-03-24T03:30:14.186Z,119.33
2024-03-24T03:30:45.577Z,114.67
2024-03-24T03:31:16.995Z,110.67
2024-03-24T03:31:48.408Z,107.33
2024-03-24T03:32:19.822Z,107.33
2024-03-24T03:32:51.320Z,108.00
2024-03-24T03:33:22.722Z,109.00
2024-03-24T03:33:54.135Z,109.00
2024-03-24T03:34:25.570Z,108.67
2024-03-24T03:34:57.049Z,109.33
2024-03-24T03:35:28.465Z,110.33
2024-03-24T03:36:00.016Z,111.00
2024-03-24T03:36:31.597Z,112.67
2024-03-24T03:37:03.519Z,114.00
2024-03-24T03:37:36.550Z,115.33
2024-03-24T03:38:08.103Z,121.33
2024-03-24T03:38:39.580Z,130.33
2024-03-24T03:39:11.181Z,132.00
2024-03-24T03:39:42.590Z,131.33
2024-03-24T03:40:14.213Z,130.67
2024-03-24T03:40:45.615Z,130.00
2024-03-24T03:41:17.057Z,129.33
2024-03-24T03:41:48.471Z,129.00
2024-03-24T03:42:20.050Z,128.33
2024-03-24T03:42:51.457Z,128.00
2024-03-24T03:43:23.281Z,128.00
2024-03-24T03:43:54.681Z,129.00
2024-03-24T03:44:26.090Z,131.33
2024-03-24T03:44:57.502Z,131.67
2024-03-24T03:45:28.923Z,131.00
2024-03-24T03:46:01.907Z,131.00
2024-03-24T03:46:33.319Z,130.33
2024-03-24T03:47:04.743Z,130.00
2024-03-24T03:47:36.136Z,128.67
2024-03-24T03:48:07.667Z,126.00
2024-03-24T03:48:43.862Z,123.33
2024-03-24T03:49:16.442Z,120.00
2024-03-24T03:49:50.622Z,116.00
2024-03-24T03:50:23.177Z,112.33
2024-03-24T03:50:54.957Z,113.00
2024-03-24T03:51:39.816Z,113.67
2024-03-24T03:52:11.592Z,114.67
2024-03-24T03:52:47.854Z,117.33
2024-03-24T03:53:22.420Z,152.00
2024-03-24T03:53:55.464Z,164.00
2024-03-24T03:54:26.855Z,160.33
2024-03-24T03:55:00.511Z,151.67
2024-03-24T03:55:33.643Z,149.33
2024-03-24T03:56:06.280Z,153.67
2024-03-24T03:56:38.620Z,152.67
2024-03-24T03:57:10.034Z,148.00
2024-03-24T03:57:42.247Z,146.33
2024-03-24T03:58:13.665Z,144.00
2024-03-24T03:58:45.082Z,141.33
2024-03-24T03:59:17.101Z,139.67
2024-03-24T03:59:48.499Z,138.33
2024-03-24T04:00:19.951Z,137.33
2024-03-24T04:00:51.352Z,137.00
2024-03-24T04:01:22.755Z,136.67
2024-03-24T04:01:54.174Z,139.67
2024-03-24T04:02:25.913Z,153.33
2024-03-24T04:02:57.617Z,162.67
2024-03-24T04:03:29.036Z,166.00
2024-03-24T04:04:00.454Z,164.33
2024-03-24T04:04:31.880Z,163.00
2024-03-24T04:05:04.080Z,159.33
2024-03-24T04:05:37.994Z,156.33
2024-03-24T04:06:09.405Z,154.33
2024-03-24T04:06:40.821Z,153.67
2024-03-24T04:07:12.235Z,153.00
2024-03-24T04:07:44.077Z,152.33
2024-03-24T04:08:15.761Z,152.00
2024-03-24T04:08:47.195Z,151.00
2024-03-24T04:09:18.900Z,151.00
2024-03-24T04:09:50.337Z,150.00
2024-03-24T04:10:21.733Z,150.00
2024-03-24T04:10:53.210Z,150.00
2024-03-24T04:11:24.622Z,149.33
2024-03-24T04:11:56.029Z,150.33
2024-03-24T04:12:27.444Z,152.33
2024-03-24T04:12:58.852Z,158.67
2024-03-24T04:13:30.266Z,175.67
2024-03-24T04:14:01.680Z,196.00
2024-03-24T04:14:33.089Z,222.67
2024-03-24T04:15:05.028Z,246.33
2024-03-24T04:15:45.380Z,262.67
2024-03-24T04:16:17.073Z,270.67
2024-03-24T04:16:48.530Z,270.00
2024-03-24T04:17:19.939Z,261.33
2024-03-24T04:17:51.346Z,249.67
2024-03-24T04:18:22.769Z,244.00
2024-03-24T04:18:54.173Z,238.67
2024-03-24T04:19:25.960Z,230.67
2024-03-24T04:20:04.168Z,240.33
2024-03-24T04:20:36.698Z,240.67
2024-03-24T04:21:08.080Z,235.00
2024-03-24T04:21:39.493Z,239.33
2024-03-24T04:22:10.922Z,262.33
2024-03-24T04:22:43.745Z,288.33
2024-03-24T04:23:15.222Z,296.33
2024-03-24T04:23:46.621Z,287.00
2024-03-24T04:24:18.103Z,277.33
2024-03-24T04:24:49.983Z,277.33
2024-03-24T04:25:21.399Z,277.67
2024-03-24T04:25:55.970Z,273.67
2024-03-24T04:26:27.365Z,261.33
2024-03-24T04:26:59.836Z,263.33
2024-03-24T04:27:32.311Z,276.00
2024-03-24T04:28:03.870Z,274.33
2024-03-24T04:28:35.264Z,272.33
2024-03-24T04:29:06.690Z,279.33
2024-03-24T04:29:38.107Z,277.33
2024-03-24T04:30:09.970Z,268.33
2024-03-24T04:30:41.365Z,268.00
2024-03-24T04:31:12.814Z,277.00
2024-03-24T04:31:44.218Z,285.33
2024-03-24T04:32:15.634Z,280.67
2024-03-24T04:32:47.085Z,271.67
2024-03-24T04:33:18.496Z,261.00
2024-03-24T04:33:50.017Z,236.00
2024-03-24T04:34:21.488Z,217.33
2024-03-24T04:34:52.902Z,207.33
2024-03-24T04:35:24.333Z,192.00
2024-03-24T04:35:55.744Z,182.67
2024-03-24T04:36:27.176Z,182.33
2024-03-24T04:36:59.258Z,177.33
2024-03-24T04:37:30.680Z,186.33
2024-03-24T04:38:02.076Z,187.33
2024-03-24T04:38:33.491Z,180.33
2024-03-24T04:39:04.906Z,183.67
2024-03-24T04:39:36.316Z,180.33
2024-03-24T04:40:08.847Z,168.67
2024-03-24T04:40:40.258Z,164.00
2024-03-24T04:41:13.419Z,159.00
2024-03-24T04:41:49.126Z,150.33
2024-03-24T04:42:20.665Z,137.33
2024-03-24T04:42:52.074Z,149.67
2024-03-24T04:43:23.492Z,166.00
2024-03-24T04:43:55.764Z,178.33
2024-03-24T04:44:27.174Z,178.00
2024-03-24T04:44:58.776Z,161.00
2024-03-24T04:45:30.467Z,145.33
2024-03-24T04:46:01.877Z,135.67
2024-03-24T04:46:34.070Z,142.67
2024-03-24T04:47:06.048Z,146.67
2024-03-24T04:47:37.441Z,137.67
2024-03-24T04:48:08.877Z,125.67
2024-03-24T04:48:40.325Z,116.33
2024-03-24T04:49:11.743Z,112.00
2024-03-24T04:49:43.149Z,108.33
2024-03-24T04:50:14.737Z,116.33
2024-03-24T04:50:46.147Z,144.33
2024-03-24T04:51:18.928Z,148.67
2024-03-24T04:51:50.340Z,145.33
2024-03-24T04:52:22.225Z,134.00
2024-03-24T04:52:53.629Z,122.00
2024-03-24T04:53:26.238Z,109.33
2024-03-24T04:53:57.883Z,97.67
2024-03-24T04:54:29.290Z,106.00
2024-03-24T04:55:01.173Z,126.67
2024-03-24T04:55:32.592Z,130.33
2024-03-24T04:56:04.178Z,128.00
2024-03-24T04:56:35.670Z,130.33
2024-03-24T04:57:07.110Z,141.00
2024-03-24T04:57:38.646Z,150.33
2024-03-24T04:58:10.158Z,154.67
2024-03-24T04:58:41.558Z,164.67
2024-03-24T04:59:12.970Z,176.67
2024-03-24T04:59:44.385Z,167.00
2024-03-24T05:00:16.216Z,165.33
2024-03-24T05:00:47.624Z,188.33
2024-03-24T05:01:19.042Z,193.67
2024-03-24T05:01:50.447Z,177.33
2024-03-24T05:02:21.866Z,170.67
2024-03-24T05:02:53.289Z,155.33
2024-03-24T05:03:24.681Z,130.33
2024-03-24T05:03:56.095Z,118.67
2024-03-24T05:04:28.295Z,121.00
2024-03-24T05:04:59.700Z,124.00
2024-03-24T05:05:31.125Z,114.67
2024-03-24T05:06:02.611Z,106.33
2024-03-24T05:06:34.049Z,102.67
2024-03-24T05:07:05.442Z,99.67
2024-03-24T05:07:37.213Z,97.33
2024-03-24T05:08:09.061Z,97.00
2024-03-24T05:08:40.463Z,99.00
2024-03-24T05:09:11.867Z,105.67
2024-03-24T05:09:43.615Z,113.00
2024-03-24T05:10:15.244Z,158.33
2024-03-24T05:10:46.642Z,196.00
2024-03-24T05:11:18.054Z,177.00
2024-03-24T05:11:49.461Z,156.67
2024-03-24T05:12:20.878Z,150.33
2024-03-24T05:12:52.296Z,131.00
2024-03-24T05:13:23.709Z,117.33
2024-03-24T05:13:55.352Z,114.67
2024-03-24T05:14:26.996Z,116.67
2024-03-24T05:14:59.287Z,119.00
2024-03-24T05:15:31.746Z,121.33
2024-03-24T05:16:03.382Z,122.33
2024-03-24T05:16:37.098Z,123.00
2024-03-24T05:17:08.492Z,121.67
2024-03-24T05:17:40.223Z,118.67
2024-03-24T05:18:12.766Z,113.00
2024-03-24T05:18:44.185Z,108.33
2024-03-24T05:19:15.628Z,109.00
2024-03-24T05:19:47.021Z,111.33
2024-03-24T05:20:18.468Z,112.00
2024-03-24T05:20:50.015Z,112.67
2024-03-24T05:21:22.323Z,114.00
2024-03-24T05:21:53.861Z,115.00
2024-03-24T05:22:25.252Z,115.00
2024-03-24T05:22:56.663Z,115.00
2024-03-24T05:23:28.202Z,115.67
2024-03-24T05:23:59.780Z,115.00
2024-03-24T05:24:31.981Z,115.00
2024-03-24T05:25:04.565Z,114.67
2024-03-24T05:25:39.350Z,113.67
2024-03-24T05:26:10.757Z,113.00
2024-03-24T05:26:42.207Z,113.33
2024-03-24T05:27:15.658Z,114.00
2024-03-24T05:27:47.076Z,114.00
2024-03-24T05:28:18.996Z,113.67
2024-03-24T05:28:55.790Z,113.33
2024-03-24T05:29:27.610Z,118.33
2024-03-24T05:29:59.010Z,131.67
2024-03-24T05:30:30.414Z,136.00
2024-03-24T05:31:01.960Z,134.00
2024-03-24T05:31:33.743Z,132.00
2024-03-24T05:32:05.596Z,131.00
2024-03-24T05:32:37.028Z,138.33
2024-03-24T05:33:09.112Z,168.33
2024-03-24T05:33:41.025Z,199.67
2024-03-24T05:34:12.417Z,230.33
2024-03-24T05:34:44.020Z,232.00
2024-03-24T05:35:15.484Z,221.00
2024-03-24T05:35:47.368Z,202.67
2024-03-24T05:36:18.819Z,187.00
2024-03-24T05:36:50.217Z,173.00
2024-03-24T05:37:21.657Z,169.67
2024-03-24T05:37:53.040Z,189.67
2024-03-24T05:38:24.666Z,190.33
2024-03-24T05:38:57.782Z,177.33
2024-03-24T05:39:29.192Z,179.33
2024-03-24T05:40:00.625Z,180.33
2024-03-24T05:40:32.027Z,176.00
2024-03-24T05:41:04.238Z,170.67
2024-03-24T05:41:35.708Z,149.67
2024-03-24T05:42:07.342Z,136.67
2024-03-24T05:42:38.938Z,138.00
2024-03-24T05:43:10.347Z,143.67
2024-03-24T05:43:42.506Z,148.33
2024-03-24T05:44:14.927Z,149.67
2024-03-24T05:44:46.341Z,147.00
2024-03-24T05:45:17.874Z,138.33
2024-03-24T05:45:49.259Z,129.33
2024-03-24T05:46:20.673Z,126.33
2024-03-24T05:46:52.102Z,124.67
2024-03-24T05:47:23.515Z,127.00
2024-03-24T05:47:54.909Z,131.33
2024-03-24T05:48:26.323Z,134.67
2024-03-24T05:48:57.750Z,136.33
2024-03-24T05:49:29.156Z,137.67
2024-03-24T05:50:01.476Z,138.00
2024-03-24T05:50:32.886Z,135.33
2024-03-24T05:51:06.300Z,128.33
2024-03-24T05:51:38.116Z,125.67
2024-03-24T05:52:09.524Z,125.33
2024-03-24T05:52:42.452Z,127.00
2024-03-24T05:53:13.842Z,127.33
2024-03-24T05:53:45.280Z,125.00
2024-03-24T05:54:16.696Z,119.67
2024-03-24T05:54:48.097Z,114.33
2024-03-24T05:55:19.542Z,116.33
2024-03-24T05:55:51.042Z,122.00
2024-03-24T05:56:22.441Z,126.33
2024-03-24T05:56:53.867Z,128.00
2024-03-24T05:57:25.272Z,129.00
2024-03-24T05:57:56.688Z,129.67
2024-03-24T05:58:29.414Z,130.67
2024-03-24T05:59:00.816Z,130.67
2024-03-24T05:59:32.222Z,125.67
2024-03-24T06:00:04.923Z,116.33
2024-03-24T06:00:36.344Z,112.33
2024-03-24T06:01:07.792Z,113.67
2024-03-24T06:01:39.776Z,112.33
2024-03-24T06:02:11.886Z,107.67
2024-03-24T06:02:43.295Z,100.00
2024-03-24T06:03:14.705Z,94.33
2024-03-24T06:03:46.117Z,95.67
2024-03-24T06:04:17.530Z,97.67
2024-03-24T06:04:48.937Z,104.67
2024-03-24T06:05:20.367Z,151.33
2024-03-24T06:05:51.798Z,192.67
2024-03-24T06:06:24.975Z,198.67
2024-03-24T06:06:56.370Z,198.67
2024-03-24T06:07:29.263Z,186.00
2024-03-24T06:08:00.690Z,165.00
2024-03-24T06:08:34.756Z,156.00
2024-03-24T06:09:06.574Z,155.00
2024-03-24T06:09:38.412Z,153.67
2024-03-24T06:10:09.832Z,151.00
2024-03-24T06:10:43.568Z,139.00
2024-03-24T06:11:14.980Z,122.33
2024-03-24T06:11:46.413Z,123.00
2024-03-24T06:12:17.874Z,145.33
2024-03-24T06:12:49.286Z,162.33
2024-03-24T06:13:21.149Z,155.67
2024-03-24T06:13:52.547Z,152.67
2024-03-24T06:14:23.958Z,147.00
2024-03-24T06:14:55.375Z,139.67
2024-03-24T06:15:26.785Z,124.33
2024-03-24T06:15:59.123Z,108.33
2024-03-24T06:16:30.538Z,103.00
2024-03-24T06:17:01.963Z,98.00
2024-03-24T06:17:33.357Z,93.00
2024-03-24T06:18:05.237Z,91.33
2024-03-24T06:18:36.759Z,94.00
2024-03-24T06:19:09.792Z,102.33
2024-03-24T06:19:42.371Z,107.67
2024-03-24T06:20:13.862Z,107.67
2024-03-24T06:20:45.274Z,106.00
2024-03-24T06:21:16.680Z,102.33
2024-03-24T06:21:49.322Z,98.00
2024-03-24T06:22:20.771Z,92.67
2024-03-24T06:22:52.185Z,93.00
2024-03-24T06:23:23.606Z,97.33
2024-03-24T06:23:55.000Z,101.00
2024-03-24T06:24:26.858Z,102.33
2024-03-24T06:24:58.268Z,103.00
2024-03-24T06:25:30.465Z,103.00
2024-03-24T06:26:01.870Z,102.00
2024-03-24T06:26:33.289Z,99.33
2024-03-24T06:27:04.846Z,99.67
2024-03-24T06:27:36.311Z,100.00
2024-03-24T06:28:07.693Z,100.67
2024-03-24T06:28:39.104Z,101.67
2024-03-24T06:29:10.893Z,102.00
2024-03-24T06:29:42.280Z,101.67
2024-03-24T06:30:13.752Z,100.00
2024-03-24T06:30:45.165Z,97.33
2024-03-24T06:31:16.581Z,91.67
2024-03-24T06:31:47.980Z,87.33
2024-03-24T06:32:19.468Z,87.00
2024-03-24T06:32:51.018Z,88.00
2024-03-24T06:33:22.452Z,89.33
2024-03-24T06:33:56.567Z,106.00
2024-03-24T06:34:27.979Z,145.00
2024-03-24T06:34:59.421Z,168.33
2024-03-24T06:35:30.848Z,194.67
2024-03-24T06:36:02.424Z,192.00
2024-03-24T06:36:34.583Z,181.67
2024-03-24T06:37:05.999Z,189.00
2024-03-24T06:37:40.307Z,188.67
2024-03-24T06:38:11.737Z,180.33
2024-03-24T06:38:43.155Z,178.67
2024-03-24T06:39:14.558Z,180.33
2024-03-24T06:39:45.972Z,171.33
2024-03-24T06:40:17.419Z,162.33
2024-03-24T06:40:48.821Z,162.33